Salisbury, MO (65281)

3:38 PM CDT on April 18, 2015 (GMT -0500)
NonFedAWOS | | Change Station
CLOSE
Current Station
Personal Weather Station
Location: Moberly, MO
Elevation: 867 ft
Nearby Weather Stations

Elev 867 ft 39.46 °N, 92.43 °W | Updated 39 minutes ago

Mostly Cloudy
Mostly Cloudy
77 °F
Feels Like 78 °F
N
18
Wind Variable Wind from South
Gusts 25.0 mph

Today
High -- | Low -- °F
--% Chance of Precip.
Yesterday
High -- | Low -- °F
Precip. -- in
6:30 AM 7:51 PM
New Moon, 0% visible
Pressure 29.93 in
Visibility 10.0 miles
Clouds Scattered Clouds 1100 ft
Mostly Cloudy 5000 ft
Mostly Cloudy 8000 ft
Heat Index 78 °F
Dew Point 54 °F
Humidity 44%
Rainfall in
Snow Depth Not available.
UV 4 out of 12
Pollen 9.00 out of 12
Air Quality Not available.
Flu Activity Local Activity
METAR KVER 182015Z AUTO 25006KT 10SM SCT011 BKN050 BKN080 19/15 A2993 RMK AO2 T01900151

More Conditions Fewer Conditions

Pressure 29.93 in
Visibility 10.0 miles
Clouds Scattered Clouds 1100 ft
Mostly Cloudy 5000 ft
Mostly Cloudy 8000 ft
Heat Index 78 °F
Dew Point 54 °F
Humidity 44%
Rainfall in
Snow Depth Not available.
UV 4 out of 12
Pollen 9.00 out of 12
Air Quality Not available.
Flu Activity Local Activity
METAR KVER 182015Z AUTO 25006KT 10SM SCT011 BKN050 BKN080 19/15 A2993 RMK AO2 T01900151

More Conditions Fewer Conditions

10-Day Weather Forecast

Almanac

Astronomy

Apr. 18, 2015 Rise Set
Actual Time
Civil Twilight
Nautical Twilight
Astronomical Twilight
Moon
Length of Visible Light
Length of Day
Tomorrow will be .
, % of the Moon is Illuminated

Today's Extremes

State Highs State Lows

Community

WunderPhotos

Upload Photos

1,814,519 photos uploaded!

WunderBlogs® & News

Nearby

Air Quality

  Air Quality AQ Index Pollutant
Not available.

Snow Depth

Station Depth Elevation

Earthquake Activity

City Distance Mag. Time & Date
Minimum magnitude displayed is 2.5.

Coastal Water Temperatures

Place Temperature

Stations

Nearby Weather Stations

Station Location Temp. Windchill Dew Point Humidity Wind Precip. Elev Updated Type